Time;durP1;ratioP1;P1;durP2;ratioP2;P2;SDS_P1;SDS_P2;PMS_P1;PMS_P2;Temp;Humidity;BMP_temperature;BMP_pressure;BME280_temperature;BME280_humidity;BME280_pressure;Samples;Min_cycle;Max_cycle;Signal;HPM_P1;HPM_P2
2022/04/07 00:00:13;;;;;;;2.50;2.30;;;11.80;99.90;;;;;;5093725;28;20276;-66
2022/04/07 00:02:40;;;;;;;2.15;2.03;;;11.70;99.90;;;;;;5093927;28;20202;-66
2022/04/07 00:05:07;;;;;;;2.00;1.90;;;11.70;99.90;;;;;;5093847;28;20236;-66
2022/04/07 00:07:34;;;;;;;2.28;1.80;;;11.70;99.90;;;;;;5093633;28;20683;-66
2022/04/07 00:10:03;;;;;;;3.28;2.15;;;11.70;99.90;;;;;;5093031;28;20226;-68
2022/04/07 00:12:32;;;;;;;1.98;1.88;;;11.70;99.90;;;;;;5093507;28;20209;-68
2022/04/07 00:14:59;;;;;;;2.05;1.95;;;11.70;99.90;;;;;;5093411;28;20296;-67
2022/04/07 00:17:26;;;;;;;1.98;1.85;;;11.70;99.90;;;;;;5093483;28;20236;-67
2022/04/07 00:19:53;;;;;;;1.92;1.83;;;11.70;99.90;;;;;;5093219;28;20493;-67
2022/04/07 00:22:20;;;;;;;1.80;1.70;;;11.60;99.90;;;;;;5093520;28;20209;-65
2022/04/07 00:24:46;;;;;;;1.90;1.80;;;11.60;99.90;;;;;;5093123;28;20635;-67
2022/04/07 00:27:16;;;;;;;1.73;1.63;;;11.60;99.90;;;;;;5093189;28;20583;-67
2022/04/07 00:29:42;;;;;;;1.48;1.38;;;11.60;99.90;;;;;;5093073;28;20228;-66
2022/04/07 00:32:10;;;;;;;3.40;2.00;;;11.50;99.90;;;;;;5093478;28;20614;-66
2022/04/07 00:34:37;;;;;;;1.63;1.52;;;11.50;99.90;;;;;;5093542;28;20198;-66
2022/04/07 00:37:04;;;;;;;2.00;1.60;;;11.50;99.90;;;;;;5093433;28;20206;-66
2022/04/07 00:39:31;;;;;;;1.30;1.30;;;11.50;99.90;;;;;;5092831;28;20226;-67
2022/04/07 00:41:58;;;;;;;2.55;1.73;;;11.50;99.90;;;;;;5093605;28;20269;-66
2022/04/07 00:44:27;;;;;;;1.60;1.50;;;11.50;99.90;;;;;;5093024;28;20297;-66
2022/04/07 00:46:54;;;;;;;1.85;1.75;;;11.50;99.90;;;;;;5093300;28;20202;-67
2022/04/07 00:49:21;;;;;;;2.35;1.90;;;11.50;99.90;;;;;;5092982;28;20675;-66
2022/04/07 00:51:50;;;;;;;1.75;1.65;;;11.60;99.90;;;;;;5093024;28;20224;-66
2022/04/07 00:54:17;;;;;;;1.65;1.55;;;11.60;99.90;;;;;;5093031;28;20213;-67
2022/04/07 00:56:45;;;;;;;1.80;1.38;;;11.60;99.90;;;;;;5092958;28;20690;-67
2022/04/07 00:59:16;;;;;;;1.70;1.60;;;11.60;99.90;;;;;;5092626;28;20743;-67
2022/04/07 01:01:45;;;;;;;1.60;1.50;;;11.60;99.90;;;;;;5093354;28;20585;-67
2022/04/07 01:04:12;;;;;;;1.50;1.40;;;11.60;99.90;;;;;;5092894;28;20209;-66
2022/04/07 01:06:41;;;;;;;1.40;1.30;;;11.60;99.90;;;;;;5092876;28;20202;-69
2022/04/07 01:09:08;;;;;;;1.40;1.30;;;11.70;99.90;;;;;;5093648;28;20230;-68
2022/04/07 01:11:36;;;;;;;1.10;1.10;;;11.70;99.90;;;;;;5093789;28;20226;-68
2022/04/07 01:14:03;;;;;;;1.30;1.20;;;11.80;99.90;;;;;;5093315;28;20673;-68
2022/04/07 01:16:31;;;;;;;1.15;1.10;;;11.80;99.90;;;;;;5093680;28;20209;-69
2022/04/07 01:18:59;;;;;;;1.50;1.40;;;11.80;99.90;;;;;;5093579;28;20206;-68
2022/04/07 01:21:27;;;;;;;1.00;1.00;;;11.70;99.90;;;;;;5093607;28;20214;-68
2022/04/07 01:24:02;;;;;;;1.35;1.25;;;11.70;99.90;;;;;;5093287;28;20204;-68
2022/04/07 01:26:32;;;;;;;1.45;1.25;;;11.60;99.90;;;;;;5093519;28;20201;-69
2022/04/07 01:29:00;;;;;;;1.30;1.30;;;11.60;99.90;;;;;;5093566;28;20197;-68
2022/04/07 01:31:27;;;;;;;1.30;1.20;;;11.60;99.90;;;;;;5093483;28;20622;-68
2022/04/07 01:33:55;;;;;;;1.70;1.60;;;11.60;99.90;;;;;;5093394;28;20202;-68
2022/04/07 01:36:23;;;;;;;1.85;1.30;;;11.60;99.90;;;;;;5093320;28;20209;-68
2022/04/07 01:38:50;;;;;;;1.98;1.45;;;11.60;99.90;;;;;;5093488;28;20209;-68
2022/04/07 01:41:20;;;;;;;1.33;1.23;;;11.50;99.90;;;;;;5093428;28;20218;-68
2022/04/07 01:43:50;;;;;;;1.25;1.15;;;11.50;99.90;;;;;;5093177;28;20201;-68
2022/04/07 01:46:18;;;;;;;1.30;1.20;;;11.50;99.90;;;;;;5093403;28;20213;-68
2022/04/07 01:48:45;;;;;;;1.42;1.33;;;11.40;99.90;;;;;;5093413;28;20204;-68
2022/04/07 01:51:13;;;;;;;1.70;1.58;;;11.40;99.90;;;;;;5093317;28;20236;-68
2022/04/07 01:53:40;;;;;;;3.10;1.60;;;11.30;99.90;;;;;;5093976;28;20198;-68
2022/04/07 01:56:08;;;;;;;1.25;1.15;;;11.20;99.90;;;;;;5097229;28;20237;-68
2022/04/07 01:58:36;;;;;;;1.38;1.27;;;11.20;99.90;;;;;;5097227;28;20212;-68
2022/04/07 02:01:04;;;;;;;4.30;1.85;;;11.20;99.90;;;;;;5097918;28;20217;-68
2022/04/07 02:03:31;;;;;;;1.40;1.30;;;11.20;99.90;;;;;;5096970;28;20202;-68
2022/04/07 02:06:10;;;;;;;1.70;1.60;;;11.20;99.90;;;;;;5097124;28;20210;-68
2022/04/07 02:08:37;;;;;;;1.33;1.20;;;11.20;99.90;;;;;;5097139;28;20209;-68
2022/04/07 02:11:04;;;;;;;1.55;1.42;;;11.20;99.90;;;;;;5096891;28;20633;-68
2022/04/07 02:13:32;;;;;;;1.50;1.40;;;11.30;99.90;;;;;;5096581;28;20725;-68
2022/04/07 02:15:59;;;;;;;1.83;1.73;;;11.30;99.90;;;;;;5096934;28;20198;-68
2022/04/07 02:18:27;;;;;;;1.50;1.40;;;11.30;99.90;;;;;;5096957;28;20537;-68
2022/04/07 02:20:54;;;;;;;2.55;1.88;;;11.30;99.90;;;;;;5096846;28;20228;-68
2022/04/07 02:23:21;;;;;;;1.60;1.50;;;11.20;99.90;;;;;;5096613;28;20292;-68
2022/04/07 02:25:48;;;;;;;1.77;1.67;;;11.20;99.90;;;;;;5096736;28;20293;-68
2022/04/07 02:28:14;;;;;;;1.40;1.30;;;11.30;99.90;;;;;;5096460;28;20221;-68
2022/04/07 02:30:41;;;;;;;1.45;1.35;;;11.30;99.90;;;;;;5096617;28;20232;-68
2022/04/07 02:33:08;;;;;;;1.83;1.60;;;11.20;99.90;;;;;;5096472;28;20202;-68
2022/04/07 02:35:36;;;;;;;1.65;1.55;;;11.30;99.90;;;;;;5096588;28;20202;-68
2022/04/07 02:38:03;;;;;;;1.50;1.40;;;11.30;99.90;;;;;;5096537;28;20230;-68
2022/04/07 02:40:30;;;;;;;1.50;1.40;;;11.30;99.90;;;;;;5096177;28;20220;-68
2022/04/07 02:42:56;;;;;;;1.48;1.38;;;11.30;99.90;;;;;;5096432;28;20228;-68
2022/04/07 02:45:23;;;;;;;2.35;2.20;;;11.30;99.90;;;;;;5096458;28;20202;-68
2022/04/07 02:47:50;;;;;;;1.67;1.58;;;11.30;99.90;;;;;;5096236;28;20204;-68
2022/04/07 02:50:17;;;;;;;1.50;1.40;;;11.30;99.90;;;;;;5095887;28;20313;-68
2022/04/07 02:52:45;;;;;;;1.50;1.40;;;11.30;99.90;;;;;;5096243;28;20310;-68
2022/04/07 02:55:12;;;;;;;1.35;1.35;;;11.30;99.90;;;;;;5095805;28;20201;-68
2022/04/07 02:57:39;;;;;;;1.30;1.20;;;11.30;99.90;;;;;;5095922;28;20297;-68
2022/04/07 03:00:07;;;;;;;1.30;1.20;;;11.20;99.90;;;;;;5095901;28;20226;-68
2022/04/07 03:02:34;;;;;;;1.95;1.30;;;11.20;99.90;;;;;;5095806;28;20674;-68
2022/04/07 03:05:01;;;;;;;1.55;1.45;;;11.20;99.90;;;;;;5095753;28;20205;-68
2022/04/07 03:07:28;;;;;;;1.40;1.30;;;11.20;99.90;;;;;;5096409;28;20198;-68
2022/04/07 03:09:56;;;;;;;1.38;1.27;;;11.20;99.90;;;;;;5095935;28;20226;-68
2022/04/07 03:12:23;;;;;;;2.45;1.10;;;11.10;99.90;;;;;;5095837;28;20222;-68
2022/04/07 03:14:49;;;;;;;1.00;1.00;;;11.00;99.90;;;;;;5095715;28;20232;-68
2022/04/07 03:17:16;;;;;;;0.88;0.88;;;11.10;99.90;;;;;;5095815;28;20202;-68
2022/04/07 03:19:43;;;;;;;1.35;1.25;;;11.10;99.90;;;;;;5095632;28;20308;-68
2022/04/07 03:22:12;;;;;;;1.05;1.00;;;11.10;99.90;;;;;;5095700;28;20198;-69
2022/04/07 03:24:39;;;;;;;1.30;1.20;;;11.10;99.90;;;;;;5095500;28;20212;-68
2022/04/07 03:27:08;;;;;;;1.25;1.15;;;11.10;99.90;;;;;;5095421;28;20359;-68
2022/04/07 03:29:35;;;;;;;1.23;1.05;;;11.10;99.90;;;;;;5095435;28;20226;-68
2022/04/07 03:32:04;;;;;;;1.00;1.00;;;11.10;99.90;;;;;;5095479;28;20576;-68
2022/04/07 03:34:31;;;;;;;1.42;1.30;;;11.10;99.90;;;;;;5095054;28;20202;-68
2022/04/07 03:36:58;;;;;;;1.35;1.00;;;11.10;99.90;;;;;;5095403;28;20198;-68
2022/04/07 03:39:24;;;;;;;1.42;1.33;;;11.10;99.90;;;;;;5095274;28;20198;-68
2022/04/07 03:41:51;;;;;;;2.38;0.93;;;11.10;99.90;;;;;;5095057;28;20198;-68
2022/04/07 03:44:19;;;;;;;1.20;1.13;;;11.10;99.90;;;;;;5095139;28;20209;-68
2022/04/07 03:46:46;;;;;;;1.25;1.15;;;11.10;99.90;;;;;;5095180;28;20625;-68
2022/04/07 03:49:13;;;;;;;2.08;1.20;;;11.10;99.90;;;;;;5095033;28;20204;-68
2022/04/07 03:51:40;;;;;;;1.00;1.00;;;11.10;99.90;;;;;;5095162;28;20599;-68
2022/04/07 03:54:07;;;;;;;1.83;1.35;;;11.00;99.90;;;;;;5095281;28;20292;-68
2022/04/07 03:56:34;;;;;;;1.10;1.10;;;11.00;99.90;;;;;;5094829;28;20656;-68
2022/04/07 03:59:01;;;;;;;1.70;1.23;;;11.00;99.90;;;;;;5094861;28;20224;-68
2022/04/07 04:01:29;;;;;;;2.03;1.13;;;11.00;99.90;;;;;;5094876;28;20222;-68
2022/04/07 04:03:56;;;;;;;1.20;1.10;;;11.00;99.90;;;;;;5094487;28;20209;-68
2022/04/07 04:06:23;;;;;;;1.67;1.58;;;11.00;99.90;;;;;;5094852;28;20208;-68
2022/04/07 04:08:50;;;;;;;1.70;1.60;;;11.00;99.90;;;;;;5094760;28;20209;-68
2022/04/07 04:11:18;;;;;;;1.20;1.20;;;11.00;99.90;;;;;;5094351;28;20695;-68
2022/04/07 04:13:45;;;;;;;1.40;1.30;;;11.00;99.90;;;;;;5094492;28;20205;-68
2022/04/07 04:16:14;;;;;;;1.35;1.25;;;11.00;99.90;;;;;;5094108;28;20245;-68
2022/04/07 04:18:43;;;;;;;1.10;1.00;;;10.90;99.90;;;;;;5094587;28;20733;-68
2022/04/07 04:21:09;;;;;;;1.05;1.05;;;10.90;99.90;;;;;;5094551;28;20224;-68
2022/04/07 04:23:38;;;;;;;1.30;1.20;;;10.90;99.90;;;;;;5094331;28;20202;-68
2022/04/07 04:26:05;;;;;;;1.60;1.40;;;11.00;99.90;;;;;;5094515;28;20567;-68
2022/04/07 04:28:32;;;;;;;1.98;1.30;;;10.90;99.90;;;;;;5094076;28;20586;-68
2022/04/07 04:30:59;;;;;;;1.10;1.10;;;10.90;99.90;;;;;;5094315;28;20261;-68
2022/04/07 04:33:26;;;;;;;1.63;1.20;;;10.90;99.90;;;;;;5094144;28;20206;-68
2022/04/07 04:35:54;;;;;;;1.90;1.42;;;10.90;99.90;;;;;;5094331;28;20198;-68
2022/04/07 04:38:21;;;;;;;1.40;1.30;;;10.90;99.90;;;;;;5094306;28;20574;-68
2022/04/07 04:40:48;;;;;;;1.55;1.42;;;10.90;99.90;;;;;;5094204;28;20312;-68
2022/04/07 04:43:14;;;;;;;1.55;1.45;;;11.00;99.90;;;;;;5094060;28;20205;-68
2022/04/07 04:45:41;;;;;;;1.10;1.00;;;11.00;99.90;;;;;;5094114;28;20204;-68
2022/04/07 04:48:08;;;;;;;1.20;1.20;;;11.00;99.90;;;;;;5094114;28;20288;-68
2022/04/07 04:50:35;;;;;;;3.70;2.55;;;11.00;99.90;;;;;;5094105;28;20226;-68
2022/04/07 04:53:03;;;;;;;1.40;1.30;;;11.00;99.90;;;;;;5093712;28;20271;-69
2022/04/07 04:55:30;;;;;;;1.20;1.20;;;11.00;99.90;;;;;;5093996;28;20206;-68
2022/04/07 04:57:57;;;;;;;1.42;1.33;;;11.10;99.90;;;;;;5093958;28;20202;-68
2022/04/07 05:00:24;;;;;;;1.13;1.10;;;11.10;99.90;;;;;;5093921;28;20316;-68
2022/04/07 05:02:50;;;;;;;1.63;1.30;;;11.10;99.90;;;;;;5093740;28;20727;-68
2022/04/07 05:05:17;;;;;;;1.20;1.10;;;11.10;99.90;;;;;;5093722;28;20205;-68
2022/04/07 05:07:44;;;;;;;1.00;1.00;;;11.10;99.90;;;;;;5093846;28;20208;-68
2022/04/07 05:10:12;;;;;;;1.05;1.02;;;11.10;99.90;;;;;;5093460;28;20217;-69
2022/04/07 05:12:40;;;;;;;2.90;1.20;;;11.20;99.90;;;;;;5093749;28;20226;-68
2022/04/07 05:15:08;;;;;;;1.67;1.23;;;11.20;99.90;;;;;;5093636;28;20629;-68
2022/04/07 05:17:34;;;;;;;1.17;1.10;;;11.20;99.90;;;;;;5093751;28;20202;-68
2022/04/07 05:20:01;;;;;;;2.70;2.03;;;11.20;99.90;;;;;;5093505;28;20232;-68
2022/04/07 05:22:28;;;;;;;1.30;1.20;;;11.20;99.90;;;;;;5093762;28;20194;-68
2022/04/07 05:24:55;;;;;;;1.08;1.02;;;11.20;99.90;;;;;;5093228;28;20206;-68
2022/04/07 05:27:23;;;;;;;1.48;1.00;;;11.20;99.90;;;;;;5093453;28;20224;-68
2022/04/07 05:29:50;;;;;;;0.80;0.80;;;11.20;99.90;;;;;;5096302;28;20218;-67
2022/04/07 05:32:17;;;;;;;1.58;1.48;;;11.10;99.90;;;;;;5097844;28;20667;-68
2022/04/07 05:34:44;;;;;;;2.45;2.10;;;11.10;99.90;;;;;;5097613;28;20292;-68
2022/04/07 05:37:11;;;;;;;1.10;1.00;;;11.10;99.90;;;;;;5097681;28;20205;-68
2022/04/07 05:39:38;;;;;;;1.10;1.00;;;11.20;99.90;;;;;;5097605;28;20218;-68
2022/04/07 05:42:05;;;;;;;1.20;1.10;;;11.20;99.90;;;;;;5097420;28;20202;-68
2022/04/07 05:44:34;;;;;;;1.45;1.00;;;11.20;99.90;;;;;;5097444;28;20586;-68
2022/04/07 05:47:01;;;;;;;1.25;0.80;;;11.20;99.90;;;;;;5097527;28;20205;-68
2022/04/07 05:49:28;;;;;;;2.60;1.00;;;11.20;99.90;;;;;;5097390;28;20205;-68
2022/04/07 05:52:00;;;;;;;1.50;1.08;;;11.30;99.90;;;;;;5097376;28;20224;-68
2022/04/07 05:54:27;;;;;;;1.02;0.80;;;11.30;99.90;;;;;;5097294;28;20206;-68
2022/04/07 05:56:54;;;;;;;1.17;0.70;;;11.40;99.90;;;;;;5097397;28;20303;-68
2022/04/07 05:59:21;;;;;;;0.80;0.80;;;11.30;99.90;;;;;;5097099;28;20769;-68
2022/04/07 06:01:49;;;;;;;1.38;0.90;;;11.40;99.90;;;;;;5096998;28;20208;-68
2022/04/07 06:04:16;;;;;;;1.02;0.75;;;11.40;99.90;;;;;;5096895;28;20292;-68
2022/04/07 06:06:43;;;;;;;0.80;0.70;;;11.50;99.90;;;;;;5097190;28;20228;-68
2022/04/07 06:09:10;;;;;;;0.70;0.70;;;11.60;99.90;;;;;;5097087;28;20206;-68
2022/04/07 06:11:37;;;;;;;3.42;1.00;;;11.70;99.90;;;;;;5097102;28;20228;-68
2022/04/07 06:14:05;;;;;;;0.60;0.60;;;11.80;99.90;;;;;;5096803;28;20202;-68
2022/04/07 06:16:31;;;;;;;0.60;0.60;;;11.80;99.90;;;;;;5097008;28;20293;-68
2022/04/07 06:18:59;;;;;;;0.90;0.82;;;11.90;99.90;;;;;;5096859;28;20202;-68
2022/04/07 06:21:29;;;;;;;0.60;0.60;;;11.90;99.90;;;;;;5096906;28;20228;-68
2022/04/07 06:23:56;;;;;;;0.73;0.60;;;11.90;99.90;;;;;;5096501;28;20214;-68
2022/04/07 06:26:24;;;;;;;0.77;0.70;;;12.00;99.90;;;;;;5096848;28;20202;-68
2022/04/07 06:28:50;;;;;;;0.50;0.50;;;12.10;99.90;;;;;;5096548;28;20305;-68
2022/04/07 06:31:17;;;;;;;0.50;0.50;;;12.20;99.90;;;;;;5096330;28;20308;-68
2022/04/07 06:33:44;;;;;;;1.80;1.70;;;12.20;99.90;;;;;;5096362;28;20209;-68
2022/04/07 06:36:13;;;;;;;0.82;0.60;;;12.20;99.90;;;;;;5096397;28;20202;-69
2022/04/07 06:38:39;;;;;;;0.50;0.50;;;12.10;99.90;;;;;;5096586;28;20206;-68
2022/04/07 06:41:06;;;;;;;0.88;0.50;;;12.10;99.90;;;;;;5095656;28;20226;-69
2022/04/07 06:43:33;;;;;;;0.70;0.70;;;12.10;99.90;;;;;;5096307;28;20226;-68
2022/04/07 06:46:00;;;;;;;0.60;0.60;;;12.10;99.90;;;;;;5096432;28;20210;-68
2022/04/07 06:48:27;;;;;;;0.60;0.60;;;12.10;99.90;;;;;;5096378;28;20297;-68
2022/04/07 06:50:53;;;;;;;0.60;0.50;;;12.10;99.90;;;;;;5096290;28;20229;-68
2022/04/07 06:53:22;;;;;;;0.90;0.90;;;12.10;99.90;;;;;;5096300;28;20272;-68
2022/04/07 06:55:48;;;;;;;0.60;0.60;;;12.10;99.90;;;;;;5096280;28;20205;-68
2022/04/07 06:58:15;;;;;;;0.57;0.57;;;12.20;99.90;;;;;;5096190;28;20297;-68
2022/04/07 07:00:44;;;;;;;2.47;2.25;;;12.10;99.90;;;;;;5096070;28;20653;-68
2022/04/07 07:03:13;;;;;;;0.40;0.40;;;12.10;99.90;;;;;;5095876;28;20195;-68
2022/04/07 07:05:39;;;;;;;0.63;0.60;;;12.10;99.90;;;;;;5096077;28;20563;-68
2022/04/07 07:08:14;;;;;;;0.60;0.60;;;12.10;99.90;;;;;;5096021;28;20202;-68
2022/04/07 07:10:43;;;;;;;0.93;0.80;;;12.10;99.90;;;;;;5095831;28;20232;-68
2022/04/07 07:13:10;;;;;;;0.80;0.80;;;12.20;99.90;;;;;;5095377;28;20222;-68
2022/04/07 07:15:37;;;;;;;0.63;0.60;;;12.30;99.90;;;;;;5095915;28;20208;-69
2022/04/07 07:18:04;;;;;;;0.77;0.70;;;12.30;99.90;;;;;;5095550;28;20202;-69
2022/04/07 07:20:30;;;;;;;0.60;0.50;;;12.40;99.90;;;;;;5095783;28;20226;-68
2022/04/07 07:22:57;;;;;;;0.60;0.60;;;12.50;99.90;;;;;;5083869;28;20198;-70
2022/04/07 07:25:25;;;;;;;0.65;0.40;;;12.60;99.90;;;;;;5090990;28;20296;-68
2022/04/07 07:27:53;;;;;;;1.70;0.77;;;12.60;99.90;;;;;;5094264;28;20638;-69
2022/04/07 07:30:20;;;;;;;0.77;0.77;;;12.60;99.90;;;;;;5094621;28;20234;-68
2022/04/07 07:32:48;;;;;;;0.70;0.60;;;12.70;99.90;;;;;;5094620;28;20229;-69
2022/04/07 07:35:17;;;;;;;1.10;0.50;;;12.70;99.90;;;;;;5094356;28;20251;-68
2022/04/07 07:37:48;;;;;;;0.60;0.60;;;12.80;99.90;;;;;;5094147;28;20212;-68
2022/04/07 07:40:16;;;;;;;0.70;0.70;;;12.90;99.90;;;;;;5094248;28;20313;-68
2022/04/07 07:42:43;;;;;;;0.63;0.63;;;12.90;99.90;;;;;;5094725;28;20202;-69
2022/04/07 07:45:11;;;;;;;1.02;0.50;;;12.90;99.90;;;;;;5094067;28;20221;-69
2022/04/07 07:47:38;;;;;;;0.60;0.60;;;12.90;99.90;;;;;;5094451;28;20202;-67
2022/04/07 07:50:06;;;;;;;0.63;0.63;;;13.00;99.90;;;;;;5094173;28;20222;-66
2022/04/07 07:52:33;;;;;;;0.70;0.70;;;13.20;99.90;;;;;;5093370;28;20222;-66
2022/04/07 07:55:01;;;;;;;0.95;0.70;;;13.20;99.90;;;;;;5094683;28;20224;-65
2022/04/07 07:57:28;;;;;;;0.70;0.70;;;13.30;99.90;;;;;;5095111;28;20301;-68
2022/04/07 07:59:55;;;;;;;0.50;0.50;;;13.30;99.90;;;;;;5094686;28;20226;-68
2022/04/07 08:02:23;;;;;;;0.55;0.55;;;13.40;99.90;;;;;;5095023;28;20204;-68
2022/04/07 08:04:50;;;;;;;0.80;0.80;;;13.40;99.90;;;;;;5094682;28;20680;-68
2022/04/07 08:07:16;;;;;;;1.58;0.60;;;13.40;99.90;;;;;;5094852;28;20204;-68
2022/04/07 08:09:43;;;;;;;0.60;0.60;;;13.30;99.90;;;;;;5094486;28;20779;-68
2022/04/07 08:12:11;;;;;;;1.45;0.60;;;13.30;99.90;;;;;;5094771;28;20650;-68
2022/04/07 08:14:37;;;;;;;0.55;0.55;;;13.40;99.90;;;;;;5094395;28;20204;-68
2022/04/07 08:17:05;;;;;;;0.60;0.60;;;13.30;99.90;;;;;;5094691;28;20202;-68
2022/04/07 08:19:35;;;;;;;0.90;0.60;;;13.30;99.90;;;;;;5094495;28;20221;-68
2022/04/07 08:22:02;;;;;;;2.50;0.65;;;13.40;99.90;;;;;;5094622;28;20593;-68
2022/04/07 08:24:29;;;;;;;0.40;0.40;;;13.40;99.90;;;;;;5094432;28;20280;-68
2022/04/07 08:26:55;;;;;;;0.65;0.65;;;13.50;99.90;;;;;;5094365;28;20296;-69
2022/04/07 08:29:22;;;;;;;1.20;0.80;;;13.50;99.90;;;;;;5094430;28;20203;-68
2022/04/07 08:31:51;;;;;;;0.50;0.50;;;13.50;99.90;;;;;;5095299;28;20229;-68
2022/04/07 08:34:18;;;;;;;0.95;0.70;;;13.60;99.90;;;;;;5094044;28;20199;-68
2022/04/07 08:36:47;;;;;;;0.60;0.60;;;13.60;99.90;;;;;;5094055;28;20206;-68
2022/04/07 08:39:14;;;;;;;0.70;0.70;;;13.70;99.90;;;;;;5094323;28;20206;-68
2022/04/07 08:41:44;;;;;;;1.10;0.70;;;13.70;99.90;;;;;;5094297;28;20575;-68
2022/04/07 08:44:11;;;;;;;1.27;1.15;;;13.70;99.90;;;;;;5093916;28;20679;-68
2022/04/07 08:46:39;;;;;;;2.55;0.50;;;13.70;99.90;;;;;;5094215;28;20199;-68
2022/04/07 08:49:08;;;;;;;1.10;0.73;;;13.60;99.90;;;;;;5094064;28;20202;-68
2022/04/07 08:51:35;;;;;;;0.60;0.60;;;13.60;99.90;;;;;;5093883;28;20663;-68
2022/04/07 08:54:12;;;;;;;0.90;0.55;;;13.60;99.90;;;;;;5093617;28;20700;-68
2022/04/07 08:56:39;;;;;;;1.27;1.05;;;13.70;99.90;;;;;;5094055;28;20263;-68
2022/04/07 08:59:06;;;;;;;1.13;0.50;;;13.80;99.90;;;;;;5094000;28;20560;-68
2022/04/07 09:01:33;;;;;;;0.50;0.50;;;13.90;99.90;;;;;;5093856;28;20222;-68
2022/04/07 09:04:00;;;;;;;1.88;0.52;;;14.00;99.90;;;;;;5093578;28;20201;-68
2022/04/07 09:06:29;;;;;;;0.75;0.40;;;14.00;99.90;;;;;;5093906;28;20208;-68
2022/04/07 09:08:56;;;;;;;0.40;0.40;;;13.90;99.40;;;;;;5093874;28;20206;-68
2022/04/07 09:11:24;;;;;;;2.47;0.40;;;13.80;99.50;;;;;;5093824;28;20225;-68
2022/04/07 09:13:54;;;;;;;0.57;0.55;;;13.80;99.40;;;;;;5093478;28;20222;-68
2022/04/07 09:16:21;;;;;;;0.88;0.50;;;13.80;99.10;;;;;;5093534;28;20270;-68
2022/04/07 09:18:48;;;;;;;0.50;0.50;;;13.80;98.90;;;;;;5093535;28;20660;-68
2022/04/07 09:21:23;;;;;;;0.98;0.40;;;13.80;99.10;;;;;;5093683;28;20221;-68
2022/04/07 09:23:49;;;;;;;1.88;0.32;;;13.80;99.10;;;;;;5093519;28;20208;-68
2022/04/07 09:26:17;;;;;;;1.30;0.98;;;13.90;99.20;;;;;;5093679;28;20209;-68
2022/04/07 09:28:45;;;;;;;1.48;0.50;;;14.00;99.10;;;;;;5093253;28;20210;-68
2022/04/07 09:31:14;;;;;;;2.25;0.40;;;14.00;98.90;;;;;;5093631;28;20228;-68
2022/04/07 09:33:41;;;;;;;0.57;0.50;;;14.00;99.10;;;;;;5093101;28;20225;-68
2022/04/07 09:36:10;;;;;;;0.43;0.40;;;14.00;99.10;;;;;;5093644;28;20202;-68
2022/04/07 09:38:38;;;;;;;1.05;0.40;;;14.00;99.50;;;;;;5093573;28;20209;-67
2022/04/07 09:41:06;;;;;;;0.65;0.50;;;13.90;99.00;;;;;;5093260;28;20232;-68
2022/04/07 09:43:43;;;;;;;0.50;0.50;;;13.80;99.50;;;;;;5093119;28;20209;-68
2022/04/07 09:46:13;;;;;;;0.90;0.60;;;13.70;99.90;;;;;;5093595;28;20600;-68
2022/04/07 09:48:40;;;;;;;0.60;0.50;;;13.60;99.90;;;;;;5093540;28;20206;-68
2022/04/07 09:51:08;;;;;;;0.85;0.50;;;13.60;99.90;;;;;;5093548;28;20222;-68
2022/04/07 09:53:39;;;;;;;0.75;0.50;;;13.60;99.90;;;;;;5093119;28;20219;-68
2022/04/07 09:56:07;;;;;;;2.28;0.45;;;13.60;99.90;;;;;;5093190;28;20656;-68
2022/04/07 09:58:35;;;;;;;0.60;0.60;;;13.70;99.90;;;;;;5093387;28;20206;-68
2022/04/07 10:01:03;;;;;;;0.50;0.50;;;13.80;99.90;;;;;;5093360;28;20226;-68
2022/04/07 10:03:32;;;;;;;1.15;0.80;;;14.30;99.90;;;;;;5092998;28;20210;-69
2022/04/07 10:06:00;;;;;;;0.85;0.80;;;14.70;99.70;;;;;;5093259;28;20207;-68
2022/04/07 10:08:27;;;;;;;0.57;0.40;;;14.80;99.90;;;;;;5093251;28;20200;-68
2022/04/07 10:10:55;;;;;;;0.40;0.40;;;14.80;99.00;;;;;;5093287;28;20227;-68
2022/04/07 10:13:22;;;;;;;2.95;0.68;;;14.80;98.90;;;;;;5092998;28;20580;-68
2022/04/07 10:15:49;;;;;;;0.85;0.40;;;14.90;98.90;;;;;;5095586;28;20294;-68
2022/04/07 10:18:22;;;;;;;0.50;0.45;;;14.80;98.30;;;;;;5096981;28;20199;-68
2022/04/07 10:20:57;;;;;;;0.75;0.50;;;14.90;98.20;;;;;;5096730;28;20231;-68
2022/04/07 10:23:43;;;;;;;0.65;0.55;;;15.10;97.50;;;;;;5096741;28;20564;-68
2022/04/07 10:26:12;;;;;;;0.60;0.60;;;15.20;97.20;;;;;;5096956;28;20206;-68
2022/04/07 10:28:39;;;;;;;0.65;0.50;;;15.10;96.80;;;;;;5096649;28;20218;-67
2022/04/07 10:31:14;;;;;;;0.60;0.57;;;15.00;96.70;;;;;;5096605;28;20231;-68
2022/04/07 10:33:43;;;;;;;0.75;0.50;;;15.10;96.30;;;;;;5096605;28;20276;-68
2022/04/07 10:36:16;;;;;;;0.88;0.45;;;15.30;96.10;;;;;;5096647;28;20208;-68
2022/04/07 10:38:46;;;;;;;0.40;0.30;;;15.10;96.10;;;;;;5096711;28;20564;-68
2022/04/07 10:41:33;;;;;;;0.50;0.50;;;15.00;96.50;;;;;;5096540;28;20224;-68
2022/04/07 10:44:08;;;;;;;0.75;0.50;;;15.10;96.60;;;;;;5095991;28;20203;-69
2022/04/07 10:46:35;;;;;;;0.47;0.47;;;15.10;96.80;;;;;;5096292;28;20204;-68
2022/04/07 10:49:06;;;;;;;0.65;0.40;;;15.10;96.70;;;;;;5096436;28;20211;-67
2022/04/07 10:51:46;;;;;;;0.45;0.45;;;15.00;97.40;;;;;;5096118;28;20723;-68
2022/04/07 10:54:14;;;;;;;0.40;0.40;;;15.20;97.00;;;;;;5096234;28;20274;-68
2022/04/07 10:56:46;;;;;;;1.02;0.55;;;15.50;96.30;;;;;;5096291;28;20205;-68
2022/04/07 10:59:19;;;;;;;1.05;0.40;;;15.90;95.60;;;;;;5096194;28;20567;-68
2022/04/07 11:02:02;;;;;;;0.40;0.40;;;16.00;95.20;;;;;;5096302;28;20190;-68
2022/04/07 11:04:36;;;;;;;0.38;0.30;;;15.90;95.20;;;;;;5095850;28;20227;-68
2022/04/07 11:07:18;;;;;;;1.10;0.40;;;15.70;95.40;;;;;;5096098;28;20235;-68
2022/04/07 11:10:04;;;;;;;0.50;0.50;;;15.40;95.40;;;;;;5096292;28;20284;-68
2022/04/07 11:12:32;;;;;;;0.65;0.60;;;15.20;96.20;;;;;;5095676;28;20184;-68
2022/04/07 11:15:26;;;;;;;1.20;0.40;;;15.10;96.30;;;;;;5095429;28;20232;-68
2022/04/07 11:17:55;;;;;;;2.05;0.57;;;15.10;96.30;;;;;;5095868;28;20311;-68
2022/04/07 11:20:22;;;;;;;0.30;0.30;;;15.20;96.20;;;;;;5095776;28;20229;-68
2022/04/07 11:22:52;;;;;;;0.80;0.40;;;15.40;96.00;;;;;;5095827;28;20212;-68
2022/04/07 11:25:24;;;;;;;0.88;0.60;;;15.50;95.70;;;;;;5095457;28;20314;-68
2022/04/07 11:28:22;;;;;;;1.55;0.40;;;15.50;95.70;;;;;;5095443;28;20216;-68
2022/04/07 11:30:51;;;;;;;1.50;0.57;;;15.40;95.30;;;;;;5033150;28;20726;-68
2022/04/07 11:33:28;;;;;;;0.52;0.32;;;15.40;95.10;;;;;;5081943;28;20311;-68
2022/04/07 11:36:37;;;;;;;0.55;0.45;;;15.60;95.30;;;;;;5095542;28;20212;-68
2022/04/07 11:39:12;;;;;;;0.40;0.40;;;15.60;95.10;;;;;;5095556;28;20189;-68
2022/04/07 11:41:43;;;;;;;0.60;0.40;;;15.50;94.80;;;;;;5095506;28;20201;-68
2022/04/07 11:44:11;;;;;;;0.47;0.47;;;15.50;94.80;;;;;;5095122;28;20288;-68
2022/04/07 11:46:40;;;;;;;1.35;0.43;;;15.60;95.20;;;;;;5095526;28;20214;-68
2022/04/07 11:49:07;;;;;;;0.50;0.28;;;15.70;95.50;;;;;;5095347;28;20723;-68
2022/04/07 11:51:39;;;;;;;0.50;0.40;;;15.70;95.20;;;;;;5095247;28;20294;-68
2022/04/07 11:54:07;;;;;;;2.25;0.40;;;15.70;95.20;;;;;;5094957;28;20632;-68
2022/04/07 11:56:38;;;;;;;0.80;0.40;;;15.50;95.20;;;;;;5095080;28;20207;-68
2022/04/07 11:59:07;;;;;;;0.40;0.30;;;15.40;95.50;;;;;;5095225;28;20291;-69
2022/04/07 12:01:36;;;;;;;0.40;0.30;;;15.30;96.10;;;;;;5095011;28;20233;-68
2022/04/07 12:04:06;;;;;;;2.17;1.90;;;15.30;96.10;;;;;;5094918;28;20196;-68
2022/04/07 12:06:35;;;;;;;0.40;0.40;;;15.30;96.50;;;;;;5095238;28;20209;-68
2022/04/07 12:09:04;;;;;;;0.40;0.30;;;15.20;96.30;;;;;;5095017;28;20239;-68
2022/04/07 12:11:34;;;;;;;2.45;0.60;;;15.30;96.40;;;;;;5094668;28;20224;-68
2022/04/07 12:14:07;;;;;;;0.75;0.52;;;15.30;96.60;;;;;;5094841;28;20684;-68
2022/04/07 12:16:34;;;;;;;0.38;0.35;;;15.20;96.50;;;;;;5094910;28;20682;-68
2022/04/07 12:19:04;;;;;;;2.60;2.40;;;15.20;96.90;;;;;;5094909;28;20797;-68
2022/04/07 12:21:50;;;;;;;0.63;0.45;;;15.20;96.90;;;;;;5095162;28;20224;-68
2022/04/07 12:24:17;;;;;;;0.40;0.40;;;15.10;96.90;;;;;;5095091;28;20243;-68
2022/04/07 12:26:47;;;;;;;1.42;0.40;;;15.00;97.30;;;;;;5094530;28;20313;-68
2022/04/07 12:29:14;;;;;;;2.53;0.50;;;15.00;97.60;;;;;;5094389;28;20211;-69
2022/04/07 12:31:42;;;;;;;0.50;0.50;;;14.90;97.70;;;;;;5094458;28;20215;-68
2022/04/07 12:34:09;;;;;;;1.95;1.85;;;14.90;97.80;;;;;;5094015;28;20224;-68
2022/04/07 12:36:38;;;;;;;1.10;0.30;;;14.70;98.30;;;;;;5094456;28;20229;-68
2022/04/07 12:39:08;;;;;;;0.30;0.30;;;14.60;98.60;;;;;;5093933;28;20203;-68
2022/04/07 12:41:40;;;;;;;1.60;0.52;;;14.50;98.90;;;;;;5094023;28;20237;-68
2022/04/07 12:44:10;;;;;;;0.50;0.40;;;14.50;99.00;;;;;;5093819;28;20670;-68
2022/04/07 12:46:48;;;;;;;0.40;0.40;;;14.50;99.10;;;;;;5094199;28;20657;-68
2022/04/07 12:49:23;;;;;;;0.40;0.40;;;14.60;99.20;;;;;;5094142;28;20203;-68
2022/04/07 12:52:01;;;;;;;0.40;0.40;;;14.60;99.00;;;;;;5094752;28;20190;-68
2022/04/07 12:54:29;;;;;;;0.30;0.30;;;14.60;98.80;;;;;;5093800;28;20229;-68